createdAt,value
2023-04-15T00:00:10.328Z,13.53
2023-04-15T00:02:40.908Z,10.27
2023-04-15T00:05:09.374Z,11.83
2023-04-15T00:07:37.333Z,13.03
2023-04-15T00:10:06.834Z,10.87
2023-04-15T00:12:34.618Z,11.07
2023-04-15T00:15:04.815Z,11.27
2023-04-15T00:17:33.076Z,10.80
2023-04-15T00:20:00.960Z,9.83
2023-04-15T00:22:28.816Z,12.27
2023-04-15T00:24:56.607Z,10.33
2023-04-15T00:27:24.837Z,12.40
2023-04-15T00:29:52.634Z,10.97
2023-04-15T00:32:22.022Z,10.73
2023-04-15T00:34:50.732Z,10.07
2023-04-15T00:37:18.614Z,9.53
2023-04-15T00:39:46.422Z,10.67
2023-04-15T00:42:14.887Z,12.80
2023-04-15T00:44:42.698Z,11.20
2023-04-15T00:47:11.987Z,12.43
2023-04-15T00:49:41.433Z,11.17
2023-04-15T00:52:09.215Z,11.83
2023-04-15T00:54:37.553Z,11.47
2023-04-15T00:57:07.029Z,11.33
2023-04-15T00:59:35.659Z,12.40
2023-04-15T01:02:03.929Z,10.97
2023-04-15T01:04:32.611Z,11.40
2023-04-15T01:07:02.482Z,12.27
2023-04-15T01:09:30.394Z,12.17
2023-04-15T01:11:58.534Z,11.87
2023-04-15T01:14:26.916Z,11.70
2023-04-15T01:16:54.648Z,13.00
2023-04-15T01:19:22.511Z,12.37
2023-04-15T01:21:50.686Z,10.13
2023-04-15T01:24:20.093Z,12.40
2023-04-15T01:26:50.452Z,12.40
2023-04-15T01:29:18.654Z,11.70
2023-04-15T01:31:51.938Z,11.50
2023-04-15T01:34:19.956Z,11.43
2023-04-15T01:36:47.969Z,13.67
2023-04-15T01:39:15.857Z,12.07
2023-04-15T01:41:44.140Z,13.40
2023-04-15T01:44:13.295Z,12.90
2023-04-15T01:46:41.640Z,12.87
2023-04-15T01:49:09.562Z,13.33
2023-04-15T01:51:37.367Z,13.20
2023-04-15T01:54:05.133Z,12.13
2023-04-15T01:56:33.414Z,11.43
2023-04-15T01:59:02.050Z,12.53
2023-04-15T02:01:31.883Z,13.27
2023-04-15T02:04:01.016Z,14.30
2023-04-15T02:06:28.957Z,11.77
2023-04-15T02:08:56.785Z,11.03
2023-04-15T02:11:25.001Z,11.07
2023-04-15T02:13:53.992Z,12.60
2023-04-15T02:16:22.289Z,12.67
2023-04-15T02:18:52.170Z,13.33
2023-04-15T02:21:19.992Z,14.03
2023-04-15T02:23:48.337Z,11.97
2023-04-15T02:26:16.934Z,12.27
2023-04-15T02:28:44.807Z,13.60
2023-04-15T02:31:15.769Z,12.27
2023-04-15T02:33:43.635Z,13.27
2023-04-15T02:36:12.820Z,13.23
2023-04-15T02:38:42.308Z,12.80
2023-04-15T02:41:10.624Z,12.23
2023-04-15T02:43:39.969Z,14.83
2023-04-15T02:46:12.840Z,12.93
2023-04-15T02:48:40.955Z,12.50
2023-04-15T02:51:16.826Z,13.67
2023-04-15T02:53:44.823Z,12.55
2023-04-15T02:56:12.952Z,13.97
2023-04-15T02:58:42.576Z,15.17
2023-04-15T03:01:10.607Z,12.40
2023-04-15T03:03:38.897Z,13.67
2023-04-15T03:06:06.946Z,12.97
2023-04-15T03:08:36.923Z,16.50
2023-04-15T03:11:05.319Z,12.50
2023-04-15T03:13:34.773Z,14.10
2023-04-15T03:16:10.550Z,14.07
2023-04-15T03:18:38.539Z,13.03
2023-04-15T03:21:06.584Z,15.63
2023-04-15T03:23:38.222Z,14.87
2023-04-15T03:26:06.394Z,13.80
2023-04-15T03:28:34.975Z,15.37
2023-04-15T03:31:03.435Z,15.03
2023-04-15T03:33:31.814Z,17.27
2023-04-15T03:35:59.666Z,15.80
2023-04-15T03:38:27.464Z,15.43
2023-04-15T03:40:56.870Z,15.50
2023-04-15T03:43:24.596Z,17.20
2023-04-15T03:45:52.429Z,17.17
2023-04-15T03:48:20.358Z,14.30
2023-04-15T03:50:48.361Z,16.83
2023-04-15T03:53:16.393Z,17.50
2023-04-15T03:55:44.736Z,18.17
2023-04-15T03:58:13.916Z,17.27
2023-04-15T04:00:42.365Z,18.53
2023-04-15T04:03:10.331Z,17.80
2023-04-15T04:05:39.063Z,17.47
2023-04-15T04:08:07.241Z,18.17
2023-04-15T04:10:35.298Z,16.27
2023-04-15T04:13:03.070Z,16.30
2023-04-15T04:15:32.482Z,18.20
2023-04-15T04:18:00.822Z,17.60
2023-04-15T04:20:28.766Z,16.70
2023-04-15T04:22:56.520Z,17.27
2023-04-15T04:25:24.882Z,17.93
2023-04-15T04:27:52.796Z,16.23
2023-04-15T04:30:20.832Z,15.97
2023-04-15T04:32:51.017Z,18.33
2023-04-15T04:35:19.106Z,18.23
2023-04-15T04:37:46.852Z,17.50
2023-04-15T04:40:15.033Z,17.10
2023-04-15T04:42:42.829Z,17.03
2023-04-15T04:45:11.298Z,19.80
2023-04-15T04:47:39.122Z,18.10
2023-04-15T04:50:10.229Z,16.70
2023-04-15T04:52:38.475Z,16.63
2023-04-15T04:55:08.562Z,16.97
2023-04-15T04:57:37.622Z,17.00
2023-04-15T05:00:08.934Z,14.03
2023-04-15T05:02:37.187Z,10.90
2023-04-15T05:05:06.569Z,15.30
2023-04-15T05:07:36.755Z,17.00
2023-04-15T05:10:06.584Z,17.33
2023-04-15T05:12:35.426Z,17.90
2023-04-15T05:15:03.490Z,16.23
2023-04-15T05:17:33.363Z,16.67
2023-04-15T05:20:01.429Z,16.27
2023-04-15T05:22:30.479Z,16.77
2023-04-15T05:24:59.858Z,15.63
2023-04-15T05:27:27.787Z,16.77
2023-04-15T05:29:56.560Z,16.00
2023-04-15T05:32:24.602Z,20.37
2023-04-15T05:34:52.519Z,16.83
2023-04-15T05:37:23.596Z,15.10
2023-04-15T05:39:52.070Z,15.73
2023-04-15T05:42:21.423Z,15.47
2023-04-15T05:44:49.422Z,12.80
2023-04-15T05:47:17.479Z,15.20
2023-04-15T05:49:45.389Z,16.50
2023-04-15T05:52:13.107Z,12.10
2023-04-15T05:54:41.027Z,12.67
2023-04-15T05:57:08.782Z,16.50
2023-04-15T05:59:38.894Z,18.93
2023-04-15T06:02:07.527Z,11.67
2023-04-15T06:04:35.324Z,14.27
2023-04-15T06:07:03.057Z,17.23
2023-04-15T06:09:30.951Z,17.43
2023-04-15T06:11:59.278Z,18.97
2023-04-15T06:14:27.225Z,11.40
2023-04-15T06:16:56.387Z,18.27
2023-04-15T06:19:24.779Z,13.07
2023-04-15T06:21:52.642Z,17.30
2023-04-15T06:24:20.827Z,18.20
2023-04-15T06:26:48.650Z,17.53
2023-04-15T06:29:16.453Z,13.10
2023-04-15T06:31:44.330Z,15.60
2023-04-15T06:34:14.666Z,16.37
2023-04-15T06:36:42.537Z,15.97
2023-04-15T06:39:10.569Z,13.33
2023-04-15T06:41:38.435Z,19.27
2023-04-15T06:44:06.367Z,17.20
2023-04-15T06:46:34.265Z,11.93
2023-04-15T06:49:02.557Z,12.53
2023-04-15T06:51:32.666Z,15.57
2023-04-15T06:54:00.665Z,16.47
2023-04-15T06:56:28.840Z,17.23
2023-04-15T06:58:57.117Z,19.33
2023-04-15T07:01:25.297Z,17.53
2023-04-15T07:03:53.231Z,17.60
2023-04-15T07:06:21.850Z,17.70
2023-04-15T07:08:51.042Z,16.77
2023-04-15T07:11:20.017Z,19.20
2023-04-15T07:13:47.937Z,15.70
2023-04-15T07:16:15.902Z,18.17
2023-04-15T07:18:43.928Z,16.33
2023-04-15T07:21:11.991Z,18.23
2023-04-15T07:23:40.212Z,15.93
2023-04-15T07:26:09.879Z,16.00
2023-04-15T07:28:37.735Z,16.43
2023-04-15T07:31:05.774Z,17.20
2023-04-15T07:33:33.670Z,17.07
2023-04-15T07:36:02.818Z,20.10
2023-04-15T07:38:30.698Z,15.90
2023-04-15T07:40:59.024Z,14.60
2023-04-15T07:43:28.322Z,14.47
2023-04-15T07:45:56.199Z,12.93
2023-04-15T07:48:24.075Z,17.20
2023-04-15T07:50:51.876Z,15.80
2023-04-15T07:53:20.352Z,16.07
2023-04-15T07:55:48.166Z,15.17
2023-04-15T07:58:16.274Z,11.07
2023-04-15T08:00:45.741Z,15.57
2023-04-15T08:03:13.723Z,14.83
2023-04-15T08:05:41.895Z,15.07
2023-04-15T08:08:09.964Z,8.17
2023-04-15T08:10:37.961Z,15.77
2023-04-15T08:13:05.894Z,10.67
2023-04-15T08:15:33.913Z,12.30
2023-04-15T08:18:03.257Z,13.23
2023-04-15T08:20:31.146Z,15.37
2023-04-15T08:22:59.006Z,12.67
2023-04-15T08:25:27.374Z,11.17
2023-04-15T08:27:57.557Z,13.63
2023-04-15T08:30:25.407Z,10.83
2023-04-15T08:32:53.351Z,9.80
2023-04-15T08:35:22.914Z,9.50
2023-04-15T08:37:51.134Z,9.77
2023-04-15T08:40:19.125Z,10.87
2023-04-15T08:42:56.687Z,11.70
2023-04-15T08:45:25.595Z,9.70
2023-04-15T08:47:57.375Z,9.43
2023-04-15T08:50:32.081Z,10.07
2023-04-15T08:53:00.649Z,15.47
2023-04-15T08:55:35.794Z,9.47
2023-04-15T08:58:05.555Z,9.98
2023-04-15T09:00:33.999Z,7.03
2023-04-15T09:03:02.727Z,11.17
2023-04-15T09:05:33.913Z,8.90
2023-04-15T09:08:02.450Z,11.43
2023-04-15T09:10:31.043Z,11.23
2023-04-15T09:12:59.205Z,10.77
2023-04-15T09:15:30.048Z,10.70
2023-04-15T09:17:58.432Z,10.53
2023-04-15T09:20:27.374Z,8.70
2023-04-15T09:22:56.856Z,9.23
2023-04-15T09:25:32.179Z,7.93
2023-04-15T09:28:03.022Z,8.73
2023-04-15T09:30:31.378Z,11.97
2023-04-15T09:33:02.420Z,10.43
2023-04-15T09:35:30.446Z,8.13
2023-04-15T09:38:06.322Z,8.57
2023-04-15T09:40:37.105Z,10.70
2023-04-15T09:43:07.610Z,9.87
2023-04-15T09:45:37.060Z,9.87
2023-04-15T09:48:17.631Z,8.43
2023-04-15T09:50:45.674Z,10.93
2023-04-15T09:53:19.448Z,9.67
2023-04-15T09:55:51.172Z,8.37
2023-04-15T09:58:20.313Z,10.10
2023-04-15T10:00:50.315Z,9.77
2023-04-15T10:03:21.937Z,9.90
2023-04-15T10:05:52.576Z,8.30
2023-04-15T10:08:27.495Z,7.30
2023-04-15T10:10:56.168Z,7.40
2023-04-15T10:13:25.927Z,7.53
2023-04-15T10:15:59.346Z,9.10
2023-04-15T10:18:29.009Z,7.37
2023-04-15T10:20:57.096Z,8.67
2023-04-15T10:23:27.724Z,7.80
2023-04-15T10:25:57.529Z,7.77
2023-04-15T10:28:26.805Z,7.87
2023-04-15T10:30:54.778Z,9.17
2023-04-15T10:33:25.774Z,7.47
2023-04-15T10:35:56.492Z,6.20
2023-04-15T10:38:40.677Z,8.40
2023-04-15T10:41:21.129Z,9.13
2023-04-15T10:43:52.685Z,12.40
2023-04-15T10:46:24.478Z,7.67
2023-04-15T10:48:53.997Z,5.93
2023-04-15T10:51:32.192Z,9.93
2023-04-15T10:54:02.129Z,6.67
2023-04-15T10:56:31.429Z,5.37
2023-04-15T10:59:01.273Z,7.77
2023-04-15T11:01:53.328Z,7.13
2023-04-15T11:04:53.971Z,6.67
2023-04-15T11:07:37.299Z,7.77
2023-04-15T11:10:51.450Z,5.17
2023-04-15T11:13:27.252Z,7.20
2023-04-15T11:16:01.499Z,5.13
2023-04-15T11:18:32.881Z,5.50
2023-04-15T11:21:04.388Z,5.87
2023-04-15T11:23:37.169Z,6.00
2023-04-15T11:26:14.935Z,6.00
2023-04-15T11:28:45.253Z,4.57
2023-04-15T11:31:15.517Z,5.53
2023-04-15T11:33:54.005Z,6.00
2023-04-15T11:36:27.045Z,4.60
2023-04-15T11:38:56.179Z,4.67
2023-04-15T11:41:25.826Z,5.13
2023-04-15T11:43:53.810Z,4.70
2023-04-15T11:46:28.842Z,4.27
2023-04-15T11:48:56.593Z,4.63
2023-04-15T11:51:24.481Z,5.03
2023-04-15T11:53:52.361Z,5.17
2023-04-15T11:56:22.221Z,4.17
2023-04-15T11:58:53.770Z,5.43
2023-04-15T12:01:21.561Z,6.20
2023-04-15T12:03:50.209Z,3.07
2023-04-15T12:06:20.369Z,5.03
2023-04-15T12:09:10.163Z,6.90
2023-04-15T12:11:45.034Z,6.70
2023-04-15T12:14:25.208Z,5.72
2023-04-15T12:16:54.703Z,5.03
2023-04-15T12:19:26.393Z,6.07
2023-04-15T12:22:00.662Z,4.40
2023-04-15T12:24:32.552Z,4.10
2023-04-15T12:27:04.892Z,4.43
2023-04-15T12:29:36.612Z,5.13
2023-04-15T12:32:08.247Z,4.77
2023-04-15T12:34:38.612Z,4.30
2023-04-15T12:37:09.553Z,6.23
2023-04-15T12:39:40.035Z,4.23
2023-04-15T12:42:09.308Z,5.53
2023-04-15T12:44:39.866Z,5.10
2023-04-15T12:47:09.722Z,4.57
2023-04-15T12:49:38.159Z,4.47
2023-04-15T12:52:06.422Z,4.27
2023-04-15T12:54:34.727Z,5.73
2023-04-15T12:57:05.519Z,6.13
2023-04-15T12:59:34.152Z,5.20
2023-04-15T13:02:04.335Z,4.03
2023-04-15T13:04:32.448Z,4.40
2023-04-15T13:07:02.505Z,4.03
2023-04-15T13:09:31.092Z,4.57
2023-04-15T13:11:59.247Z,4.80
2023-04-15T13:14:27.224Z,9.17
2023-04-15T13:16:55.496Z,6.20
2023-04-15T13:19:24.795Z,4.37
2023-04-15T13:21:52.887Z,5.03
2023-04-15T13:24:20.926Z,5.20
2023-04-15T13:26:50.424Z,4.47
2023-04-15T13:29:18.886Z,5.47
2023-04-15T13:31:46.906Z,4.60
2023-04-15T13:34:14.778Z,4.30
2023-04-15T13:36:44.185Z,3.50
2023-04-15T13:39:12.073Z,4.97
2023-04-15T13:41:40.402Z,4.77
2023-04-15T13:44:08.381Z,4.53
2023-04-15T13:46:36.345Z,4.90
2023-04-15T13:49:04.526Z,5.30
2023-04-15T13:51:32.921Z,4.40
2023-04-15T13:54:02.339Z,6.37
2023-04-15T13:56:31.891Z,3.80
2023-04-15T13:59:03.074Z,4.90
2023-04-15T14:01:31.242Z,5.03
2023-04-15T14:03:59.281Z,4.90
2023-04-15T14:06:27.922Z,2.97
2023-04-15T14:08:55.953Z,4.57
2023-04-15T14:11:25.474Z,9.60
2023-04-15T14:13:53.337Z,6.60
2023-04-15T14:16:21.455Z,4.40
2023-04-15T14:18:49.274Z,5.80
2023-04-15T14:21:17.151Z,6.90
2023-04-15T14:23:45.230Z,4.43
2023-04-15T14:26:14.105Z,3.97
2023-04-15T14:28:44.938Z,5.33
2023-04-15T14:31:14.237Z,4.83
2023-04-15T14:33:42.331Z,4.63
2023-04-15T14:36:10.414Z,6.93
2023-04-15T14:38:39.654Z,4.13
2023-04-15T14:41:08.366Z,3.87
2023-04-15T14:43:37.063Z,6.50
2023-04-15T14:46:07.050Z,11.57
2023-04-15T14:48:35.363Z,5.63
2023-04-15T14:51:03.611Z,4.93
2023-04-15T14:53:31.726Z,5.93
2023-04-15T14:55:59.685Z,4.40
2023-04-15T14:58:27.565Z,6.10
2023-04-15T15:00:55.679Z,5.03
2023-04-15T15:03:25.310Z,4.70
2023-04-15T15:05:53.461Z,5.93
2023-04-15T15:08:21.606Z,5.20
2023-04-15T15:10:50.134Z,7.17
2023-04-15T15:13:19.333Z,4.50
2023-04-15T15:15:49.704Z,5.23
2023-04-15T15:18:19.413Z,4.50
2023-04-15T15:20:49.437Z,4.17
2023-04-15T15:23:17.503Z,5.80
2023-04-15T15:25:47.219Z,4.37
2023-04-15T15:28:15.411Z,4.67
2023-04-15T15:30:43.298Z,6.37
2023-04-15T15:33:11.321Z,5.80
2023-04-15T15:35:39.501Z,5.20
2023-04-15T15:38:11.472Z,7.73
2023-04-15T15:40:39.480Z,3.33
2023-04-15T15:43:07.356Z,4.50
2023-04-15T15:45:35.915Z,5.60
2023-04-15T15:48:05.125Z,4.87
2023-04-15T15:50:33.779Z,5.60
2023-04-15T15:53:01.765Z,7.63
2023-04-15T15:55:31.250Z,5.30
2023-04-15T15:57:59.219Z,6.17
2023-04-15T16:00:27.102Z,6.53
2023-04-15T16:03:06.723Z,6.40
2023-04-15T16:05:38.541Z,7.70
2023-04-15T16:08:06.829Z,8.70
2023-04-15T16:10:37.666Z,5.47
2023-04-15T16:13:05.835Z,8.30
2023-04-15T16:15:34.512Z,6.70
2023-04-15T16:18:02.507Z,8.87
2023-04-15T16:20:31.052Z,7.93
2023-04-15T16:22:59.574Z,10.40
2023-04-15T16:25:27.513Z,10.37
2023-04-15T16:28:03.193Z,12.57
2023-04-15T16:30:36.144Z,13.27
2023-04-15T16:33:04.368Z,8.33
2023-04-15T16:35:34.520Z,9.67
2023-04-15T16:38:03.042Z,8.60
2023-04-15T16:40:31.202Z,12.17
2023-04-15T16:43:00.613Z,11.17
2023-04-15T16:45:28.655Z,19.40
2023-04-15T16:47:56.914Z,9.93
2023-04-15T16:50:25.029Z,8.57
2023-04-15T16:52:53.183Z,13.13
2023-04-15T16:55:21.046Z,8.87
2023-04-15T16:58:02.695Z,7.47
2023-04-15T17:00:36.437Z,21.00
2023-04-15T17:03:06.124Z,10.77
2023-04-15T17:05:34.741Z,9.67
2023-04-15T17:08:02.721Z,8.00
2023-04-15T17:10:31.536Z,10.27
2023-04-15T17:13:00.326Z,8.60
2023-04-15T17:15:28.186Z,11.30
2023-04-15T17:17:57.300Z,9.37
2023-04-15T17:20:26.472Z,7.53
2023-04-15T17:22:54.406Z,9.80
2023-04-15T17:25:23.301Z,15.93
2023-04-15T17:27:51.142Z,12.23
2023-04-15T17:30:19.700Z,6.53
2023-04-15T17:32:47.641Z,9.07
2023-04-15T17:35:17.093Z,14.20
2023-04-15T17:37:46.312Z,7.70
2023-04-15T17:40:14.872Z,13.20
2023-04-15T17:42:42.709Z,14.53
2023-04-15T17:45:11.531Z,7.23
2023-04-15T17:47:39.359Z,9.47
2023-04-15T17:50:08.873Z,12.23
2023-04-15T17:52:38.005Z,7.93
2023-04-15T17:55:07.871Z,9.40
2023-04-15T17:57:36.336Z,11.13
2023-04-15T18:00:05.700Z,11.83
2023-04-15T18:02:40.739Z,12.37
2023-04-15T18:05:09.484Z,12.50
2023-04-15T18:07:39.452Z,13.30
2023-04-15T18:10:09.260Z,14.60
2023-04-15T18:12:37.468Z,18.47
2023-04-15T18:15:07.251Z,14.03
2023-04-15T18:17:35.496Z,12.33
2023-04-15T18:20:03.507Z,11.87
2023-04-15T18:22:31.363Z,11.83
2023-04-15T18:25:04.178Z,14.57
2023-04-15T18:27:33.722Z,12.47
2023-04-15T18:30:01.613Z,18.07
2023-04-15T18:32:32.423Z,19.40
2023-04-15T18:35:00.727Z,12.10
2023-04-15T18:37:31.267Z,10.43
2023-04-15T18:40:00.579Z,10.53
2023-04-15T18:42:28.507Z,20.33
2023-04-15T18:44:56.377Z,28.50
2023-04-15T18:47:27.034Z,23.87
2023-04-15T18:49:55.282Z,17.67
2023-04-15T18:52:23.151Z,12.87
2023-04-15T18:54:50.919Z,22.30
2023-04-15T18:57:22.706Z,21.60
2023-04-15T18:59:58.852Z,16.20
2023-04-15T19:02:26.881Z,22.33
2023-04-15T19:04:54.808Z,14.10
2023-04-15T19:07:23.131Z,21.23
2023-04-15T19:09:51.192Z,19.17
2023-04-15T19:12:20.660Z,19.03
2023-04-15T19:14:48.563Z,21.80
2023-04-15T19:17:16.542Z,20.63
2023-04-15T19:19:44.633Z,29.37
2023-04-15T19:22:12.770Z,27.37
2023-04-15T19:24:41.002Z,18.90
2023-04-15T19:27:09.107Z,22.13
2023-04-15T19:29:38.296Z,28.07
2023-04-15T19:32:06.546Z,22.40
2023-04-15T19:34:34.400Z,21.07
2023-04-15T19:37:02.294Z,32.27
2023-04-15T19:39:30.257Z,11.13
2023-04-15T19:41:58.975Z,16.50
2023-04-15T19:44:27.052Z,16.10
2023-04-15T19:46:57.030Z,23.33
2023-04-15T19:49:26.552Z,20.90
2023-04-15T19:51:54.509Z,19.67
2023-04-15T19:54:22.756Z,13.60
2023-04-15T19:56:50.675Z,19.83
2023-04-15T19:59:18.633Z,13.40
2023-04-15T20:01:46.570Z,25.77
2023-04-15T20:04:16.196Z,18.10
2023-04-15T20:06:44.283Z,23.90
2023-04-15T20:09:12.563Z,28.77
2023-04-15T20:12:44.873Z,24.83
2023-04-15T20:14:28.630Z,24.73
2023-04-15T20:16:56.853Z,26.00
2023-04-15T20:19:26.264Z,20.90
2023-04-15T20:21:54.468Z,23.33
2023-04-15T20:24:24.173Z,23.23
2023-04-15T20:26:52.011Z,32.33
2023-04-15T20:29:20.297Z,16.33
2023-04-15T20:31:48.268Z,32.37
2023-04-15T20:34:16.222Z,37.53
2023-04-15T20:36:45.657Z,34.63
2023-04-15T20:39:13.626Z,32.83
2023-04-15T20:41:41.593Z,30.33
2023-04-15T20:44:09.661Z,24.70
2023-04-15T20:46:37.497Z,35.30
2023-04-15T20:49:05.931Z,34.30
2023-04-15T20:51:37.687Z,37.20
2023-04-15T20:54:07.485Z,39.00
2023-04-15T20:56:35.690Z,33.07
2023-04-15T20:59:03.921Z,20.47
2023-04-15T21:01:31.997Z,32.47
2023-04-15T21:03:59.906Z,37.33
2023-04-15T21:06:28.057Z,22.90
2023-04-15T21:08:56.138Z,31.43
2023-04-15T21:11:45.802Z,24.93
2023-04-15T21:14:13.454Z,29.43
2023-04-15T21:16:41.546Z,24.07
2023-04-15T21:19:10.211Z,31.67
2023-04-15T21:21:38.026Z,32.33
2023-04-15T21:24:07.834Z,40.30
2023-04-15T21:26:37.192Z,29.23
2023-04-15T21:29:07.215Z,33.80
2023-04-15T21:31:36.863Z,52.40
2023-04-15T21:34:04.786Z,27.60
2023-04-15T21:36:33.823Z,37.43
2023-04-15T21:39:01.971Z,46.47
2023-04-15T21:41:30.341Z,43.17
2023-04-15T21:43:59.536Z,36.57
2023-04-15T21:46:32.776Z,39.10
2023-04-15T21:49:01.062Z,40.70
2023-04-15T21:51:28.979Z,47.70
2023-04-15T21:53:56.777Z,49.67
2023-04-15T21:56:25.426Z,40.63
2023-04-15T21:58:57.025Z,40.57
2023-04-15T22:01:26.860Z,21.37
2023-04-15T22:03:55.128Z,41.70
2023-04-15T22:06:23.167Z,24.83
2023-04-15T22:08:56.994Z,20.20
2023-04-15T22:11:30.357Z,38.77
2023-04-15T22:13:59.339Z,46.93
2023-04-15T22:16:28.905Z,28.00
2023-04-15T22:18:57.170Z,41.63
2023-04-15T22:21:25.110Z,40.47
2023-04-15T22:23:53.303Z,29.40
2023-04-15T22:26:41.361Z,24.00
2023-04-15T22:29:09.407Z,44.73
2023-04-15T22:31:38.844Z,49.00
2023-04-15T22:34:06.774Z,48.43
2023-04-15T22:36:34.747Z,53.03
2023-04-15T22:39:02.868Z,58.83
2023-04-15T22:41:31.189Z,51.33
2023-04-15T22:43:59.062Z,50.80
2023-04-15T22:46:26.946Z,48.33
2023-04-15T22:48:56.264Z,49.33
2023-04-15T22:51:26.978Z,54.40
2023-04-15T22:53:55.417Z,49.77
2023-04-15T22:56:23.847Z,54.47
2023-04-15T22:58:52.511Z,70.77
2023-04-15T23:01:21.075Z,63.40
2023-04-15T23:03:57.085Z,63.93
2023-04-15T23:06:33.030Z,58.17
2023-04-15T23:09:01.090Z,19.37
2023-04-15T23:11:29.200Z,56.63
2023-04-15T23:13:57.139Z,49.43
2023-04-15T23:16:25.075Z,64.40
2023-04-15T23:18:53.411Z,64.63
2023-04-15T23:21:22.220Z,57.73
2023-04-15T23:23:52.507Z,60.63
2023-04-15T23:26:20.513Z,42.10
2023-04-15T23:28:48.420Z,50.07
2023-04-15T23:31:16.385Z,65.90
2023-04-15T23:33:44.382Z,49.53
2023-04-15T23:36:12.383Z,57.37
2023-04-15T23:38:40.427Z,67.80
2023-04-15T23:41:11.831Z,80.70
2023-04-15T23:43:39.758Z,69.60
2023-04-15T23:46:08.473Z,80.43
2023-04-15T23:48:36.412Z,50.37
2023-04-15T23:51:04.978Z,60.60
2023-04-15T23:53:32.821Z,74.10
2023-04-15T23:56:01.407Z,42.93
2023-04-15T23:58:31.411Z,59.93
